Time;durP1;ratioP1;P1;durP2;ratioP2;P2;SDS_P1;SDS_P2;PMS_P1;PMS_P2;Temp;Humidity;BMP_temperature;BMP_pressure;BME280_temperature;BME280_humidity;BME280_pressure;Samples;Min_cycle;Max_cycle;Signal;HPM_P1;HPM_P2
2021/01/21 00:01:45;;;;;;;3.00;1.60;;;12.10;99.90;;;;;;5076669;28;20265;-85
2021/01/21 00:04:11;;;;;;;2.73;1.20;;;12.20;99.90;;;;;;5076593;28;20262;-85
2021/01/21 00:06:39;;;;;;;3.13;1.23;;;12.10;99.90;;;;;;5094055;28;20223;-85
2021/01/21 00:09:05;;;;;;;6.47;1.60;;;12.10;99.90;;;;;;5076342;28;20278;-84
2021/01/21 00:11:31;;;;;;;5.33;1.50;;;12.20;99.90;;;;;;5076445;28;20218;-84
2021/01/21 00:13:56;;;;;;;3.20;1.27;;;12.40;99.90;;;;;;5076477;28;20193;-84
2021/01/21 00:16:22;;;;;;;2.13;1.40;;;12.10;99.90;;;;;;5076107;28;20176;-85
2021/01/21 00:18:48;;;;;;;3.10;1.53;;;12.20;99.90;;;;;;5094364;28;20167;-85
2021/01/21 00:21:13;;;;;;;4.63;1.40;;;12.20;99.90;;;;;;5075854;28;20172;-84
2021/01/21 00:23:39;;;;;;;2.87;1.60;;;12.20;99.90;;;;;;5075319;28;20191;-85
2021/01/21 00:26:05;;;;;;;3.40;1.50;;;12.10;99.90;;;;;;5076176;28;20258;-85
2021/01/21 00:28:30;;;;;;;1.90;1.27;;;12.10;99.90;;;;;;5075548;28;20543;-84
2021/01/21 00:30:56;;;;;;;2.00;1.20;;;12.20;99.90;;;;;;5087696;28;20214;-84
2021/01/21 00:33:22;;;;;;;3.07;1.60;;;12.30;99.90;;;;;;5075706;28;20176;-85
2021/01/21 00:35:48;;;;;;;3.60;1.50;;;12.20;99.90;;;;;;5094099;28;20187;-84
2021/01/21 00:38:14;;;;;;;4.57;1.23;;;12.20;99.90;;;;;;5093955;28;20178;-84
2021/01/21 00:40:40;;;;;;;4.27;1.50;;;12.30;99.90;;;;;;5078992;28;20254;-85
2021/01/21 00:43:06;;;;;;;5.20;1.60;;;12.30;99.90;;;;;;5076000;28;20175;-85
2021/01/21 00:45:31;;;;;;;4.00;1.60;;;12.30;99.90;;;;;;5075838;28;20206;-84
2021/01/21 00:47:57;;;;;;;3.10;1.40;;;12.30;99.90;;;;;;5075689;28;20580;-84
2021/01/21 00:50:23;;;;;;;3.43;1.33;;;12.20;99.90;;;;;;5075591;28;20223;-84
2021/01/21 00:52:48;;;;;;;3.07;1.50;;;12.30;99.90;;;;;;5092981;28;20175;-85
2021/01/21 00:55:14;;;;;;;4.00;1.47;;;12.30;99.90;;;;;;5075471;28;20657;-84
2021/01/21 00:57:40;;;;;;;3.40;1.30;;;12.30;99.90;;;;;;5075768;28;20845;-84
2021/01/21 01:00:10;;;;;;;3.83;1.57;;;12.30;99.90;;;;;;5093336;28;20164;-83
2021/01/21 01:02:37;;;;;;;2.83;1.37;;;12.30;99.90;;;;;;5075275;28;20182;-84
2021/01/21 01:05:05;;;;;;;3.67;1.40;;;12.30;99.90;;;;;;5075455;28;20172;-85
2021/01/21 01:07:31;;;;;;;3.40;1.30;;;12.30;99.90;;;;;;5075414;28;20194;-84
2021/01/21 01:09:56;;;;;;;4.77;1.60;;;12.30;99.90;;;;;;5075072;28;20191;-84
2021/01/21 01:12:22;;;;;;;3.27;1.40;;;12.30;99.90;;;;;;5075301;28;20214;-84
2021/01/21 01:14:48;;;;;;;4.07;1.57;;;12.40;99.90;;;;;;5075295;28;20258;-84
2021/01/21 01:17:14;;;;;;;4.63;1.70;;;12.30;99.90;;;;;;5075218;28;20175;-83
2021/01/21 01:19:39;;;;;;;4.53;1.63;;;12.40;99.90;;;;;;5075029;28;20175;-85
2021/01/21 01:22:05;;;;;;;2.10;1.30;;;12.40;99.90;;;;;;5075219;28;20178;-84
2021/01/21 01:24:31;;;;;;;5.60;2.27;;;12.30;99.90;;;;;;5075295;28;20589;-83
2021/01/21 01:26:56;;;;;;;3.37;1.47;;;12.40;99.90;;;;;;5092056;28;20213;-85
2021/01/21 01:29:22;;;;;;;5.30;1.80;;;12.30;99.90;;;;;;5075145;28;20203;-84
2021/01/21 01:31:47;;;;;;;2.93;1.50;;;12.30;99.90;;;;;;5075134;28;20215;-84
2021/01/21 01:34:13;;;;;;;3.03;1.37;;;12.30;99.90;;;;;;5075287;28;20237;-85
2021/01/21 01:36:39;;;;;;;4.93;2.23;;;12.20;99.90;;;;;;5074929;28;20176;-84
2021/01/21 01:39:05;;;;;;;4.03;1.40;;;12.10;99.90;;;;;;5074997;28;20179;-84
2021/01/21 01:41:31;;;;;;;5.80;2.03;;;11.90;99.90;;;;;;5075233;28;20171;-84
2021/01/21 01:43:56;;;;;;;4.00;1.73;;;11.90;99.90;;;;;;5075069;28;20207;-84
2021/01/21 01:46:27;;;;;;;6.33;1.90;;;11.80;99.90;;;;;;5075089;28;20643;-84
2021/01/21 01:49:00;;;;;;;3.00;1.63;;;11.70;99.90;;;;;;5075756;28;20172;-87
2021/01/21 01:51:27;;;;;;;3.00;1.37;;;11.80;99.90;;;;;;5075697;28;20219;-85
2021/01/21 01:53:52;;;;;;;5.47;2.00;;;11.70;99.90;;;;;;5076620;28;20206;-85
2021/01/21 01:56:19;;;;;;;3.77;1.80;;;11.60;99.90;;;;;;5091763;28;20221;-83
2021/01/21 01:58:45;;;;;;;3.57;1.77;;;11.60;99.90;;;;;;5074797;28;20634;-84
2021/01/21 02:01:11;;;;;;;4.40;1.70;;;11.70;99.90;;;;;;5074745;28;20228;-84
2021/01/21 02:03:37;;;;;;;3.13;1.50;;;11.60;99.90;;;;;;5074887;28;20259;-84
2021/01/21 02:06:04;;;;;;;3.80;1.50;;;11.50;99.90;;;;;;5092786;28;20585;-84
2021/01/21 02:08:30;;;;;;;4.00;1.60;;;11.50;99.90;;;;;;5077582;28;20220;-83
2021/01/21 02:11:14;;;;;;;3.97;1.50;;;11.50;99.90;;;;;;5078664;28;20691;-84
2021/01/21 02:13:42;;;;;;;3.67;1.67;;;11.50;99.90;;;;;;5078468;28;20772;-85
2021/01/21 02:16:17;;;;;;;4.57;1.47;;;11.40;99.90;;;;;;5095261;28;20217;-84
2021/01/21 02:18:56;;;;;;;5.37;1.50;;;11.40;99.90;;;;;;5096272;28;20217;-84
2021/01/21 02:21:57;;;;;;;3.17;1.50;;;11.40;99.90;;;;;;5078262;28;20176;-84
2021/01/21 02:25:00;;;;;;;3.73;1.60;;;11.40;99.90;;;;;;5078538;28;20290;-83
2021/01/21 02:27:30;;;;;;;4.17;1.40;;;11.40;99.90;;;;;;5078628;28;20183;-86
2021/01/21 02:30:06;;;;;;;4.50;1.60;;;11.40;99.90;;;;;;5077885;28;20201;-85
2021/01/21 02:32:49;;;;;;;4.33;2.03;;;11.30;99.90;;;;;;5078401;28;20191;-83
2021/01/21 02:35:18;;;;;;;5.00;2.33;;;11.30;99.90;;;;;;5096427;28;20191;-83
2021/01/21 02:37:54;;;;;;;2.87;1.50;;;11.20;99.90;;;;;;5078266;28;20666;-84
2021/01/21 02:40:21;;;;;;;5.20;1.87;;;11.10;99.90;;;;;;5077788;28;20178;-83
2021/01/21 02:42:48;;;;;;;2.90;1.40;;;11.00;99.90;;;;;;5078096;28;20172;-85
2021/01/21 02:45:14;;;;;;;3.27;1.63;;;11.00;99.90;;;;;;5077621;28;20190;-84
2021/01/21 02:47:42;;;;;;;3.80;1.73;;;11.00;99.90;;;;;;5077984;28;20175;-85
2021/01/21 02:50:09;;;;;;;3.23;1.80;;;11.20;99.90;;;;;;5077822;28;20229;-84
2021/01/21 02:52:59;;;;;;;3.47;2.07;;;11.00;99.90;;;;;;5077627;28;20190;-85
2021/01/21 02:55:30;;;;;;;2.53;1.43;;;11.10;99.90;;;;;;5077600;28;20240;-84
2021/01/21 02:58:36;;;;;;;3.43;1.40;;;11.10;99.90;;;;;;5094497;28;20176;-86
2021/01/21 03:01:02;;;;;;;2.77;1.37;;;11.20;99.90;;;;;;4994337;28;20201;-84
2021/01/21 03:03:29;;;;;;;3.03;1.30;;;11.30;99.90;;;;;;4978269;28;20558;-84
2021/01/21 03:06:01;;;;;;;5.43;1.73;;;11.40;99.90;;;;;;5026993;28;20191;-84
2021/01/21 03:08:28;;;;;;;2.33;1.40;;;11.40;99.90;;;;;;5077818;28;20256;-83
2021/01/21 03:11:10;;;;;;;4.47;1.60;;;11.50;99.90;;;;;;5077450;28;20663;-84
2021/01/21 03:13:39;;;;;;;3.03;1.57;;;11.50;99.90;;;;;;5077490;28;20176;-85
2021/01/21 03:16:05;;;;;;;2.97;1.20;;;11.60;99.90;;;;;;5077586;28;20176;-83
2021/01/21 03:18:31;;;;;;;5.20;1.00;;;10.20;99.90;;;;;;5077742;28;20180;-85
2021/01/21 03:20:56;;;;;;;3.23;1.10;;;8.90;99.90;;;;;;5078574;28;20171;-85
2021/01/21 03:23:22;;;;;;;2.37;1.20;;;8.30;99.90;;;;;;5096200;28;20663;-84
2021/01/21 03:25:48;;;;;;;2.90;1.20;;;8.10;99.90;;;;;;5077715;28;20182;-85
2021/01/21 03:28:14;;;;;;;4.70;0.87;;;7.90;99.90;;;;;;5076957;28;20228;-84
2021/01/21 03:30:39;;;;;;;2.30;0.80;;;7.80;99.90;;;;;;5077503;28;20206;-84
2021/01/21 03:33:05;;;;;;;2.87;0.80;;;7.70;99.90;;;;;;5078008;28;20178;-83
2021/01/21 03:35:31;;;;;;;3.80;1.33;;;7.80;99.90;;;;;;5077908;28;20211;-84
2021/01/21 03:37:56;;;;;;;4.30;1.10;;;7.80;99.90;;;;;;5077393;28;20266;-85
2021/01/21 03:40:22;;;;;;;4.10;1.07;;;7.80;99.90;;;;;;5078806;28;20271;-84
2021/01/21 03:42:48;;;;;;;4.37;1.10;;;7.70;99.90;;;;;;5095476;28;20171;-86
2021/01/21 03:45:14;;;;;;;7.13;1.40;;;7.90;99.90;;;;;;5077333;28;20172;-84
2021/01/21 03:47:39;;;;;;;3.50;1.00;;;7.60;99.90;;;;;;5076948;28;20266;-85
2021/01/21 03:50:06;;;;;;;3.20;1.23;;;7.50;99.90;;;;;;5076935;28;20262;-84
2021/01/21 03:52:32;;;;;;;4.07;1.00;;;7.60;99.90;;;;;;5076933;28;20175;-84
2021/01/21 03:54:57;;;;;;;4.00;1.17;;;7.60;99.90;;;;;;5076976;28;20241;-86
2021/01/21 03:57:23;;;;;;;3.00;1.10;;;7.70;99.90;;;;;;5076785;28;20168;-87
2021/01/21 03:59:48;;;;;;;5.17;1.40;;;7.80;99.90;;;;;;5076919;28;20179;-87
2021/01/21 04:02:14;;;;;;;4.43;2.00;;;7.70;99.90;;;;;;5076966;28;20270;-86
2021/01/21 04:04:40;;;;;;;5.70;1.20;;;7.60;99.90;;;;;;5076985;28;20254;-85
2021/01/21 04:07:05;;;;;;;5.30;1.10;;;7.50;99.90;;;;;;5076804;28;20187;-84
2021/01/21 04:09:31;;;;;;;6.23;1.37;;;7.50;99.90;;;;;;5076770;28;20199;-84
2021/01/21 04:11:57;;;;;;;2.53;0.90;;;7.70;99.90;;;;;;5076368;28;20348;-87
2021/01/21 04:14:22;;;;;;;4.87;1.00;;;7.60;99.90;;;;;;5076664;28;20167;-86
2021/01/21 04:16:48;;;;;;;5.10;1.30;;;7.60;99.90;;;;;;5076721;28;20643;-85
2021/01/21 04:19:13;;;;;;;5.87;1.10;;;7.60;99.90;;;;;;5093578;28;20194;-86
2021/01/21 04:21:39;;;;;;;3.97;0.97;;;7.60;99.90;;;;;;5076699;28;20654;-87
2021/01/21 04:24:05;;;;;;;3.37;1.20;;;7.60;99.90;;;;;;5076650;28;20234;-86
2021/01/21 04:26:31;;;;;;;3.13;1.27;;;7.60;99.90;;;;;;5076410;28;20701;-85
2021/01/21 04:28:57;;;;;;;3.17;1.13;;;7.60;99.90;;;;;;5076392;28;20168;-85
2021/01/21 04:31:22;;;;;;;4.83;1.13;;;7.60;99.90;;;;;;5075997;28;20211;-85
2021/01/21 04:33:48;;;;;;;5.30;1.30;;;7.40;99.90;;;;;;5077367;28;20167;-86
2021/01/21 04:36:14;;;;;;;3.73;0.90;;;7.40;99.90;;;;;;5076359;28;20215;-86
2021/01/21 04:38:40;;;;;;;3.40;1.30;;;7.50;99.90;;;;;;5076093;28;20539;-86
2021/01/21 04:41:06;;;;;;;4.10;1.20;;;7.50;99.90;;;;;;5095077;28;20175;-86
2021/01/21 04:43:32;;;;;;;6.53;1.20;;;7.50;99.90;;;;;;5075858;28;20227;-86
2021/01/21 04:45:58;;;;;;;4.80;1.27;;;7.50;99.90;;;;;;5076189;28;20635;-86
2021/01/21 04:48:25;;;;;;;6.20;3.00;;;7.50;99.90;;;;;;5075892;28;20171;-86
2021/01/21 04:50:51;;;;;;;7.37;1.80;;;7.50;99.90;;;;;;5075891;28;20207;-86
2021/01/21 04:53:21;;;;;;;3.93;1.43;;;7.50;99.90;;;;;;5076014;28;20182;-85
2021/01/21 04:55:53;;;;;;;4.00;1.20;;;7.50;99.90;;;;;;5092542;28;20643;-87
2021/01/21 04:58:31;;;;;;;5.43;1.60;;;7.50;99.90;;;;;;5076052;28;20186;-85
2021/01/21 05:00:59;;;;;;;8.03;1.70;;;7.60;99.90;;;;;;5075881;28;20175;-86
2021/01/21 05:03:26;;;;;;;4.83;1.20;;;7.60;99.90;;;;;;5076056;28;20226;-85
2021/01/21 05:05:52;;;;;;;5.53;1.70;;;7.50;99.90;;;;;;5093791;28;20171;-86
2021/01/21 05:08:18;;;;;;;6.87;1.60;;;7.60;99.90;;;;;;5093561;28;20671;-85
2021/01/21 05:10:45;;;;;;;5.67;1.60;;;7.50;99.90;;;;;;5093478;28;20711;-86
2021/01/21 05:13:11;;;;;;;5.87;1.80;;;7.50;99.90;;;;;;5076405;28;20201;-87
2021/01/21 05:15:36;;;;;;;6.03;1.80;;;7.50;99.90;;;;;;5076229;28;20179;-87
2021/01/21 05:18:02;;;;;;;7.40;1.20;;;7.50;99.90;;;;;;5075468;28;20534;-86
2021/01/21 05:20:28;;;;;;;10.27;1.80;;;7.50;99.90;;;;;;5075134;28;20301;-86
2021/01/21 05:23:01;;;;;;;9.70;2.07;;;7.50;99.90;;;;;;5075484;28;20290;-86
2021/01/21 05:25:27;;;;;;;7.20;1.50;;;7.50;99.90;;;;;;5075620;28;20651;-87
2021/01/21 05:27:55;;;;;;;6.63;1.83;;;7.50;99.90;;;;;;5075838;28;20167;-86
2021/01/21 05:30:21;;;;;;;13.57;2.10;;;7.50;99.90;;;;;;5075684;28;20167;-86
2021/01/21 05:32:47;;;;;;;7.33;1.47;;;7.40;99.90;;;;;;5075980;28;20180;-86
2021/01/21 05:35:14;;;;;;;3.00;1.40;;;7.40;99.90;;;;;;5075810;28;20256;-86
2021/01/21 05:37:40;;;;;;;5.97;1.80;;;7.40;99.90;;;;;;5075758;28;20175;-85
2021/01/21 05:40:07;;;;;;;6.43;1.67;;;7.40;99.90;;;;;;5093498;28;20430;-87
2021/01/21 05:42:37;;;;;;;7.03;1.73;;;7.30;99.90;;;;;;5077602;28;20181;-86
2021/01/21 05:45:04;;;;;;;6.90;1.70;;;7.40;99.90;;;;;;5079988;28;20192;-86
2021/01/21 05:47:30;;;;;;;10.23;2.40;;;7.50;99.90;;;;;;5080064;28;20172;-87
2021/01/21 05:49:56;;;;;;;10.93;1.90;;;7.50;99.90;;;;;;5079723;28;20171;-87
2021/01/21 05:52:24;;;;;;;6.80;1.80;;;7.40;99.90;;;;;;5079844;28;20284;-85
2021/01/21 05:54:51;;;;;;;5.47;1.77;;;7.40;99.90;;;;;;5079517;28;20179;-88
2021/01/21 05:57:17;;;;;;;10.67;2.23;;;7.50;99.90;;;;;;5079623;28;20623;-86
2021/01/21 05:59:43;;;;;;;5.07;1.90;;;7.50;99.90;;;;;;5079778;28;20167;-86
2021/01/21 06:02:10;;;;;;;6.87;1.73;;;7.40;99.90;;;;;;5079359;28;20269;-85
2021/01/21 06:04:36;;;;;;;7.80;1.93;;;7.50;99.90;;;;;;5080006;28;20258;-87
2021/01/21 06:07:04;;;;;;;7.27;1.83;;;7.40;99.90;;;;;;5079794;28;20201;-85
2021/01/21 06:09:31;;;;;;;6.73;1.70;;;7.50;99.90;;;;;;5079632;28;20542;-87
2021/01/21 06:12:01;;;;;;;8.30;2.03;;;7.50;99.90;;;;;;5079505;28;20211;-87
2021/01/21 06:14:28;;;;;;;8.33;2.43;;;7.50;99.90;;;;;;5079904;28;20208;-85
2021/01/21 06:16:56;;;;;;;7.73;1.77;;;7.40;99.90;;;;;;5079558;28;20171;-86
2021/01/21 06:19:22;;;;;;;5.77;1.90;;;7.40;99.90;;;;;;5080385;28;20522;-85
2021/01/21 06:21:59;;;;;;;7.13;2.03;;;7.40;99.90;;;;;;5079359;28;20179;-86
2021/01/21 06:24:30;;;;;;;9.60;2.50;;;7.40;99.90;;;;;;5078766;28;20199;-85
2021/01/21 06:26:58;;;;;;;5.47;2.30;;;7.40;99.90;;;;;;5097388;28;20230;-86
2021/01/21 06:29:27;;;;;;;9.03;1.77;;;7.30;99.90;;;;;;5079481;28;20171;-85
2021/01/21 06:31:57;;;;;;;5.53;1.90;;;7.50;99.90;;;;;;5078875;28;20204;-85
2021/01/21 06:34:26;;;;;;;11.60;2.00;;;7.30;99.90;;;;;;5097170;28;20209;-85
2021/01/21 06:36:57;;;;;;;12.00;2.17;;;7.50;99.90;;;;;;5078167;28;20179;-85
2021/01/21 06:39:46;;;;;;;7.00;2.10;;;7.30;99.90;;;;;;5095676;28;20183;-84
2021/01/21 06:42:16;;;;;;;9.87;2.37;;;7.30;99.90;;;;;;5111052;27;20175;-85
2021/01/21 06:44:43;;;;;;;9.57;2.13;;;7.20;99.90;;;;;;5099318;28;20170;-85
2021/01/21 06:47:09;;;;;;;10.47;3.43;;;7.20;99.90;;;;;;5117325;28;20175;-86
2021/01/21 06:49:37;;;;;;;6.20;2.33;;;7.30;99.90;;;;;;5099383;28;20533;-85
2021/01/21 06:52:03;;;;;;;9.77;2.50;;;7.20;99.90;;;;;;5101737;28;20214;-87
2021/01/21 06:54:30;;;;;;;7.10;2.90;;;7.20;99.90;;;;;;5101763;28;20208;-86
2021/01/21 06:56:56;;;;;;;8.87;2.20;;;7.20;99.90;;;;;;5102352;28;20178;-85
2021/01/21 07:00:07;;;;;;;8.47;2.40;;;7.20;99.90;;;;;;5099907;28;20175;-86
2021/01/21 07:02:46;;;;;;;8.40;2.57;;;7.20;99.90;;;;;;5094344;28;20649;-88
2021/01/21 07:05:17;;;;;;;8.00;2.00;;;7.20;99.90;;;;;;5098002;28;20686;-86
2021/01/21 07:07:56;;;;;;;11.50;2.97;;;7.20;99.90;;;;;;5098475;28;20174;-86
2021/01/21 07:10:42;;;;;;;10.37;2.17;;;7.20;99.90;;;;;;5098354;28;20182;-86
2021/01/21 07:13:14;;;;;;;9.67;2.43;;;7.20;99.90;;;;;;5099641;28;20175;-87
2021/01/21 07:15:45;;;;;;;7.50;2.50;;;7.20;99.90;;;;;;5098200;28;20178;-84
2021/01/21 07:18:14;;;;;;;7.97;2.30;;;7.30;99.90;;;;;;5116151;28;20637;-84
2021/01/21 07:21:16;;;;;;;8.70;1.93;;;7.30;99.90;;;;;;5097883;28;20171;-86
2021/01/21 07:23:56;;;;;;;8.37;2.10;;;7.40;99.90;;;;;;5044745;28;20198;-85
2021/01/21 07:26:34;;;;;;;8.13;2.73;;;7.40;99.90;;;;;;5098397;28;20217;-89
2021/01/21 07:29:12;;;;;;;8.17;2.13;;;7.40;99.90;;;;;;5098110;28;20236;-87
2021/01/21 07:31:56;;;;;;;6.63;2.53;;;7.50;99.90;;;;;;5098004;28;20206;-87
2021/01/21 07:34:22;;;;;;;4.83;1.93;;;7.50;99.90;;;;;;5097853;28;20192;-86
2021/01/21 07:37:12;;;;;;;5.23;1.70;;;7.40;99.90;;;;;;5097250;28;20556;-87
2021/01/21 07:40:11;;;;;;;8.83;2.30;;;7.40;99.90;;;;;;5097092;28;20179;-85
2021/01/21 07:42:36;;;;;;;7.93;2.00;;;7.40;99.90;;;;;;5089550;28;20656;-87
2021/01/21 07:45:14;;;;;;;8.23;2.70;;;7.50;99.90;;;;;;5097627;28;20187;-87
2021/01/21 07:47:42;;;;;;;6.77;2.10;;;7.60;99.90;;;;;;5097681;28;20178;-86
2021/01/21 07:50:16;;;;;;;7.73;1.97;;;7.60;99.90;;;;;;5098442;28;20251;-88
2021/01/21 07:52:44;;;;;;;7.07;2.53;;;7.60;99.90;;;;;;5097494;28;20211;-86
2021/01/21 07:55:10;;;;;;;5.77;2.63;;;7.60;99.90;;;;;;5105120;27;20630;-86
2021/01/21 07:57:36;;;;;;;7.30;2.20;;;7.60;99.90;;;;;;5113735;27;20193;-84
2021/01/21 08:00:04;;;;;;;14.93;3.20;;;7.60;99.90;;;;;;5116862;27;20622;-85
2021/01/21 08:02:44;;;;;;;9.07;2.90;;;7.60;99.90;;;;;;5116924;27;20166;-85
2021/01/21 08:05:10;;;;;;;9.90;2.97;;;7.90;99.90;;;;;;5117164;27;20181;-86
2021/01/21 08:07:55;;;;;;;9.17;2.93;;;7.70;99.90;;;;;;5109419;27;20204;-86
2021/01/21 08:10:21;;;;;;;10.83;2.33;;;7.60;99.90;;;;;;5106222;27;20653;-86
2021/01/21 08:12:51;;;;;;;6.10;2.60;;;7.90;99.90;;;;;;5107573;27;20203;-87
2021/01/21 08:15:20;;;;;;;11.03;2.83;;;7.70;99.90;;;;;;5106253;28;20182;-89
2021/01/21 08:17:48;;;;;;;7.03;1.80;;;7.70;99.90;;;;;;5112727;27;20177;-85
2021/01/21 08:20:13;;;;;;;7.60;2.63;;;7.80;99.90;;;;;;5102226;27;20181;-84
2021/01/21 08:22:58;;;;;;;10.80;2.50;;;7.70;99.90;;;;;;5093793;28;20195;-84
2021/01/21 08:25:39;;;;;;;8.27;2.07;;;7.70;99.90;;;;;;5108253;27;20261;-85
2021/01/21 08:28:07;;;;;;;8.17;2.30;;;7.60;99.90;;;;;;5135126;27;20638;-88
2021/01/21 08:30:33;;;;;;;10.07;2.30;;;7.70;99.90;;;;;;5113378;27;20653;-86
2021/01/21 08:33:08;;;;;;;5.53;2.13;;;7.70;99.90;;;;;;5095504;28;20278;-87
2021/01/21 08:35:37;;;;;;;5.53;1.87;;;7.90;99.90;;;;;;5098511;28;20162;-86
2021/01/21 08:38:05;;;;;;;6.63;2.13;;;7.70;99.90;;;;;;5099056;28;20262;-87
2021/01/21 08:40:31;;;;;;;7.67;2.37;;;7.60;99.90;;;;;;5101622;27;20231;-88
2021/01/21 08:42:59;;;;;;;7.30;2.37;;;7.60;99.90;;;;;;5106965;28;20238;-86
2021/01/21 08:45:29;;;;;;;12.73;3.10;;;7.60;99.90;;;;;;5114141;28;20631;-87
2021/01/21 08:47:55;;;;;;;12.43;2.33;;;7.70;99.90;;;;;;5095583;28;20163;-87
2021/01/21 08:50:22;;;;;;;7.63;2.00;;;7.60;99.90;;;;;;5102894;27;20213;-89
2021/01/21 08:53:02;;;;;;;8.37;2.50;;;7.70;99.90;;;;;;5116627;27;20223;-89
2021/01/21 08:55:42;;;;;;;6.50;2.03;;;7.60;99.90;;;;;;5131962;27;20166;-89
2021/01/21 08:58:09;;;;;;;6.90;2.33;;;7.70;99.90;;;;;;5102427;27;20178;-87
2021/01/21 09:00:37;;;;;;;7.33;2.23;;;7.70;99.90;;;;;;5096872;28;20181;-89
2021/01/21 09:03:04;;;;;;;5.83;2.10;;;7.90;99.90;;;;;;5133526;27;20619;-86
2021/01/21 09:05:30;;;;;;;11.83;2.47;;;7.70;99.90;;;;;;5095815;28;20167;-89
2021/01/21 09:08:05;;;;;;;6.97;2.67;;;7.60;99.90;;;;;;5075879;28;20219;-86
2021/01/21 09:10:43;;;;;;;11.83;2.40;;;7.60;99.90;;;;;;5076424;28;20174;-90
2021/01/21 09:13:12;;;;;;;7.53;1.80;;;7.70;99.90;;;;;;5079309;28;20183;-87
2021/01/21 09:15:58;;;;;;;10.70;2.73;;;8.00;99.90;;;;;;5099545;28;20270;-87
2021/01/21 09:18:44;;;;;;;4.93;1.97;;;7.80;99.90;;;;;;5097394;28;20265;-87
2021/01/21 09:21:17;;;;;;;5.93;2.13;;;7.80;99.90;;;;;;5097891;28;20179;-88
2021/01/21 09:23:43;;;;;;;10.07;2.30;;;7.80;99.90;;;;;;5095193;28;20684;-86
2021/01/21 09:26:13;;;;;;;7.70;2.20;;;7.80;99.90;;;;;;5095622;28;20224;-90
2021/01/21 09:28:56;;;;;;;9.93;2.40;;;7.80;99.90;;;;;;5095048;28;20673;-87
2021/01/21 09:31:23;;;;;;;7.67;2.97;;;8.00;99.90;;;;;;5094709;28;20207;-91
2021/01/21 09:33:53;;;;;;;7.53;2.60;;;8.00;99.90;;;;;;5095323;28;20181;-89
2021/01/21 09:36:29;;;;;;;8.60;2.70;;;8.10;99.90;;;;;;5095703;28;20171;-91
2021/01/21 09:38:56;;;;;;;6.70;2.10;;;8.10;99.90;;;;;;5094917;28;20202;-89
2021/01/21 09:41:24;;;;;;;7.57;2.30;;;8.10;99.90;;;;;;5095575;28;20316;-90
2021/01/21 09:43:50;;;;;;;8.20;2.23;;;8.10;99.90;;;;;;5096046;28;20175;-88
2021/01/21 09:46:16;;;;;;;6.53;2.10;;;8.10;99.90;;;;;;5095180;28;20219;-88
2021/01/21 09:48:42;;;;;;;6.30;2.50;;;8.10;99.90;;;;;;5096793;28;20174;-89
2021/01/21 09:51:08;;;;;;;7.70;1.97;;;8.10;99.90;;;;;;5099769;28;20566;-89
2021/01/21 09:53:33;;;;;;;8.20;2.90;;;8.30;99.90;;;;;;5115339;28;20178;-90
2021/01/21 09:55:59;;;;;;;8.50;1.97;;;8.20;99.90;;;;;;5095809;28;20232;-88
2021/01/21 09:58:28;;;;;;;9.17;2.60;;;8.20;99.90;;;;;;5097442;28;20167;-91
2021/01/21 10:00:54;;;;;;;5.93;1.60;;;8.20;99.90;;;;;;5114978;28;20190;-94
2021/01/21 10:03:21;;;;;;;8.43;2.37;;;8.20;99.90;;;;;;5096879;28;20167;-95
2021/01/21 10:05:47;;;;;;;10.97;2.33;;;8.20;99.90;;;;;;5114556;28;20195;-92
2021/01/21 10:08:13;;;;;;;12.77;3.10;;;8.30;99.90;;;;;;5095384;28;20193;-89
2021/01/21 10:10:39;;;;;;;7.57;2.50;;;8.30;99.90;;;;;;5113709;28;20279;-89
2021/01/21 10:13:05;;;;;;;6.43;1.97;;;8.30;99.90;;;;;;5095243;28;20171;-89
2021/01/21 10:15:30;;;;;;;9.90;2.30;;;8.30;99.90;;;;;;5112409;28;20167;-84
2021/01/21 10:17:56;;;;;;;7.80;2.13;;;8.30;99.90;;;;;;5095863;28;20174;-92
2021/01/21 10:20:22;;;;;;;4.73;2.20;;;8.30;99.90;;;;;;5094770;28;20694;-89
2021/01/21 10:22:47;;;;;;;6.27;1.87;;;8.40;99.90;;;;;;5095498;28;20210;-87
2021/01/21 10:25:14;;;;;;;7.97;2.00;;;8.50;99.90;;;;;;5096312;28;20167;-92
2021/01/21 10:27:39;;;;;;;9.47;2.30;;;8.50;99.90;;;;;;5094874;28;20175;-91
2021/01/21 10:30:06;;;;;;;9.40;1.80;;;8.60;99.90;;;;;;5100790;28;20177;-88
2021/01/21 10:32:33;;;;;;;8.50;2.30;;;8.60;99.90;;;;;;5099284;28;20674;-87
2021/01/21 10:34:58;;;;;;;5.50;1.70;;;8.60;99.90;;;;;;5099235;28;20642;-90
2021/01/21 10:37:24;;;;;;;4.87;1.63;;;8.70;99.90;;;;;;5117593;28;20171;-86
2021/01/21 10:39:50;;;;;;;7.47;1.97;;;8.70;99.90;;;;;;5099654;28;20170;-89
2021/01/21 10:42:15;;;;;;;3.60;1.70;;;8.60;99.90;;;;;;5100050;28;20167;-90
2021/01/21 10:44:42;;;;;;;7.97;2.50;;;8.60;99.90;;;;;;5120073;28;20167;-89
2021/01/21 10:47:08;;;;;;;7.07;2.20;;;8.60;99.90;;;;;;5100232;28;20614;-88
2021/01/21 10:49:33;;;;;;;5.73;1.90;;;8.60;99.90;;;;;;5098128;28;20175;-89
2021/01/21 10:52:00;;;;;;;6.97;1.70;;;8.50;99.90;;;;;;5098443;28;20231;-89
2021/01/21 10:54:25;;;;;;;8.53;2.00;;;8.60;99.90;;;;;;5099109;28;20173;-91
2021/01/21 10:56:55;;;;;;;8.37;2.20;;;8.60;99.90;;;;;;5098576;28;20174;-88
2021/01/21 10:59:21;;;;;;;7.33;2.07;;;8.50;99.90;;;;;;5097702;28;20251;-91
2021/01/21 11:01:46;;;;;;;10.83;2.10;;;8.50;99.90;;;;;;5099173;28;20179;-88
2021/01/21 11:04:13;;;;;;;7.97;2.00;;;8.50;99.90;;;;;;5098492;28;20167;-90
2021/01/21 11:06:39;;;;;;;7.87;1.80;;;8.60;99.90;;;;;;5098488;28;20166;-88
2021/01/21 11:09:05;;;;;;;7.80;1.63;;;8.60;99.90;;;;;;5097967;28;20607;-90
2021/01/21 11:11:31;;;;;;;11.10;2.20;;;8.70;99.90;;;;;;5098054;28;20211;-90
2021/01/21 11:13:56;;;;;;;7.57;2.43;;;8.70;99.90;;;;;;5098755;28;20692;-86
2021/01/21 11:16:22;;;;;;;8.73;2.20;;;8.90;99.90;;;;;;5098620;28;20183;-88
2021/01/21 11:18:48;;;;;;;12.20;2.07;;;8.80;99.90;;;;;;5097967;28;20307;-86
2021/01/21 11:21:14;;;;;;;7.20;1.80;;;9.10;99.90;;;;;;5098073;28;20231;-90
2021/01/21 11:23:39;;;;;;;6.80;1.80;;;8.80;99.90;;;;;;5097469;28;20247;-88
2021/01/21 11:26:05;;;;;;;6.43;1.60;;;8.80;99.90;;;;;;5096937;28;20175;-91
2021/01/21 11:28:31;;;;;;;7.33;1.73;;;8.80;99.90;;;;;;5098050;28;20178;-87
2021/01/21 11:30:56;;;;;;;7.87;3.00;;;8.80;99.90;;;;;;5115797;28;20646;-89
2021/01/21 11:33:22;;;;;;;6.97;2.80;;;8.80;99.90;;;;;;5097529;28;20284;-89
2021/01/21 11:35:48;;;;;;;8.47;1.80;;;8.90;99.90;;;;;;5097671;28;20666;-88
2021/01/21 11:38:14;;;;;;;8.37;1.90;;;8.70;99.90;;;;;;5097375;28;20643;-87
2021/01/21 11:40:40;;;;;;;5.37;1.80;;;8.80;99.90;;;;;;5095990;28;20167;-88
2021/01/21 11:43:09;;;;;;;7.30;2.23;;;8.70;99.90;;;;;;5097361;28;20266;-88
2021/01/21 11:45:35;;;;;;;8.30;2.23;;;8.80;99.90;;;;;;5097334;28;20250;-90
2021/01/21 11:48:01;;;;;;;8.23;3.10;;;8.80;99.90;;;;;;5096927;28;20167;-89
2021/01/21 11:50:26;;;;;;;6.83;2.20;;;8.90;99.90;;;;;;5097126;28;20539;-89
2021/01/21 11:52:52;;;;;;;6.73;2.10;;;8.90;99.90;;;;;;5096780;28;20286;-87
2021/01/21 11:55:17;;;;;;;6.07;2.40;;;9.10;99.90;;;;;;5096668;28;20173;-84
2021/01/21 11:57:43;;;;;;;6.10;2.20;;;8.90;99.90;;;;;;5115125;28;20538;-88
2021/01/21 12:00:11;;;;;;;6.83;2.47;;;9.00;99.90;;;;;;5097308;28;20202;-84
2021/01/21 12:02:37;;;;;;;6.70;1.73;;;9.10;99.90;;;;;;5100369;28;20179;-89
2021/01/21 12:05:03;;;;;;;9.20;2.13;;;9.00;99.90;;;;;;5117872;28;20627;-90
2021/01/21 12:07:29;;;;;;;10.47;2.30;;;9.00;99.90;;;;;;5117155;28;20274;-86
2021/01/21 12:09:55;;;;;;;5.23;1.93;;;9.10;99.90;;;;;;5100899;28;20197;-85
2021/01/21 12:12:21;;;;;;;8.30;2.20;;;9.00;99.90;;;;;;5098256;28;20210;-92
2021/01/21 12:14:47;;;;;;;7.53;1.70;;;9.00;99.90;;;;;;5098575;28;20542;-84
2021/01/21 12:17:13;;;;;;;8.43;2.40;;;9.10;99.90;;;;;;5098642;28;20178;-89
2021/01/21 12:19:38;;;;;;;5.97;2.10;;;9.00;99.90;;;;;;5118402;28;20171;-91
2021/01/21 12:22:04;;;;;;;5.57;2.27;;;9.00;99.90;;;;;;5099096;28;20584;-87
2021/01/21 12:24:30;;;;;;;10.97;2.60;;;9.10;99.90;;;;;;5097799;28;20225;-88
2021/01/21 12:26:56;;;;;;;8.03;3.00;;;9.10;99.90;;;;;;5098281;28;20179;-85
2021/01/21 12:29:22;;;;;;;8.13;2.30;;;9.20;99.90;;;;;;5113940;28;20219;-89
2021/01/21 12:31:48;;;;;;;4.70;1.80;;;9.10;99.90;;;;;;5103078;28;20251;-85
2021/01/21 12:34:13;;;;;;;5.83;2.17;;;9.20;99.90;;;;;;5102420;28;20257;-90
2021/01/21 12:36:39;;;;;;;6.43;2.10;;;9.10;99.90;;;;;;5099837;28;20191;-93
2021/01/21 12:39:05;;;;;;;11.20;2.40;;;9.20;99.90;;;;;;5096413;28;20194;-90
2021/01/21 12:41:31;;;;;;;6.83;2.10;;;9.20;99.90;;;;;;5098896;28;20158;-92
2021/01/21 12:43:56;;;;;;;8.43;2.50;;;9.20;99.90;;;;;;5101479;28;20186;-89
2021/01/21 12:46:24;;;;;;;10.13;2.60;;;9.20;99.90;;;;;;5125735;28;20198;-86
2021/01/21 12:48:50;;;;;;;5.43;2.20;;;9.20;99.90;;;;;;5106923;28;20752;-86
2021/01/21 12:51:16;;;;;;;6.47;2.13;;;9.30;99.90;;;;;;5100896;28;20256;-87
2021/01/21 12:53:41;;;;;;;6.93;2.30;;;9.30;99.90;;;;;;5096533;28;20194;-88
2021/01/21 12:56:10;;;;;;;5.40;1.97;;;9.40;99.90;;;;;;5097449;28;20623;-86
2021/01/21 12:58:36;;;;;;;8.93;2.90;;;9.30;99.90;;;;;;5116881;28;20159;-90
2021/01/21 13:01:01;;;;;;;8.57;1.93;;;9.30;99.90;;;;;;5096539;28;20657;-87